createdAt,value
2018-10-06T00:00:21.301Z,65.90
2018-10-06T00:02:50.461Z,66.10
2018-10-06T00:05:19.577Z,66.10
2018-10-06T00:07:48.668Z,66.10
2018-10-06T00:10:17.819Z,66.80
2018-10-06T00:12:46.899Z,66.40
2018-10-06T00:15:15.888Z,67.10
2018-10-06T00:17:44.808Z,66.90
2018-10-06T00:20:13.718Z,67.00
2018-10-06T00:22:42.719Z,67.00
2018-10-06T00:25:13.594Z,66.70
2018-10-06T00:27:42.954Z,66.90
2018-10-06T00:30:12.005Z,66.70
2018-10-06T00:32:41.048Z,67.10
2018-10-06T00:35:10.186Z,67.80
2018-10-06T00:37:39.207Z,67.10
2018-10-06T00:40:08.126Z,66.90
2018-10-06T00:42:37.215Z,67.20
2018-10-06T00:45:06.372Z,67.00
2018-10-06T00:47:35.349Z,67.50
2018-10-06T00:50:04.435Z,67.70
2018-10-06T00:52:33.341Z,67.80
2018-10-06T00:55:02.794Z,67.60
2018-10-06T00:57:31.736Z,67.50
2018-10-06T01:00:00.863Z,67.50
2018-10-06T01:02:30.475Z,67.70
2018-10-06T01:04:59.866Z,67.60
2018-10-06T01:07:29.391Z,67.30
2018-10-06T01:09:58.517Z,67.20
2018-10-06T01:12:28.472Z,67.50
2018-10-06T01:14:58.427Z,67.60
2018-10-06T01:17:27.472Z,67.70
2018-10-06T01:19:56.595Z,67.70
2018-10-06T01:22:25.503Z,67.70
2018-10-06T01:24:55.082Z,67.40
2018-10-06T01:27:24.224Z,67.20
2018-10-06T01:29:54.427Z,67.30
2018-10-06T01:32:23.477Z,67.50
2018-10-06T01:34:53.170Z,67.40
2018-10-06T01:37:22.437Z,68.10
2018-10-06T01:39:51.996Z,67.40
2018-10-06T01:42:21.247Z,68.10
2018-10-06T01:44:50.480Z,68.10
2018-10-06T01:47:19.491Z,67.20
2018-10-06T01:49:48.715Z,67.20
2018-10-06T01:52:17.863Z,67.50
2018-10-06T01:54:47.383Z,67.50
2018-10-06T01:57:16.324Z,67.80
2018-10-06T01:59:45.231Z,67.50
2018-10-06T02:02:29.327Z,67.30
2018-10-06T02:04:58.450Z,67.80
2018-10-06T02:07:27.489Z,68.30
2018-10-06T02:09:56.646Z,67.60
2018-10-06T02:12:25.630Z,67.60
2018-10-06T02:14:55.377Z,67.90
2018-10-06T02:17:24.537Z,67.30
2018-10-06T02:19:53.993Z,67.20
2018-10-06T02:22:23.179Z,67.60
2018-10-06T02:24:52.378Z,67.30
2018-10-06T02:27:22.071Z,67.80
2018-10-06T02:29:51.232Z,67.70
2018-10-06T02:32:20.358Z,67.50
2018-10-06T02:34:50.115Z,67.50
2018-10-06T02:37:19.154Z,67.60
2018-10-06T02:39:48.229Z,67.70
2018-10-06T02:42:17.265Z,68.00
2018-10-06T02:44:46.213Z,68.00
2018-10-06T02:47:15.558Z,67.40
2018-10-06T02:49:45.475Z,67.40
2018-10-06T02:52:14.957Z,68.00
2018-10-06T02:54:44.122Z,68.60
2018-10-06T02:57:13.393Z,67.90
2018-10-06T02:59:42.240Z,68.00
2018-10-06T03:02:11.371Z,68.30
2018-10-06T03:04:40.375Z,68.40
2018-10-06T03:07:09.574Z,68.20
2018-10-06T03:09:38.727Z,68.20
2018-10-06T03:12:07.787Z,68.00
2018-10-06T03:14:36.732Z,68.00
2018-10-06T03:17:07.247Z,68.00
2018-10-06T03:19:36.304Z,68.20
2018-10-06T03:22:05.342Z,68.40
2018-10-06T03:24:34.416Z,68.40
2018-10-06T03:27:03.357Z,68.00
2018-10-06T03:29:32.266Z,68.60
2018-10-06T03:32:01.210Z,68.90
2018-10-06T03:34:30.417Z,68.50
2018-10-06T03:37:00.453Z,68.40
2018-10-06T03:39:30.247Z,68.70
2018-10-06T03:41:59.382Z,68.40
2018-10-06T03:44:28.462Z,69.00
2018-10-06T03:46:58.349Z,69.80
2018-10-06T03:49:27.871Z,69.50
2018-10-06T03:51:58.438Z,69.30
2018-10-06T03:54:28.492Z,69.20
2018-10-06T03:56:58.516Z,69.70
2018-10-06T03:59:27.500Z,69.30
2018-10-06T04:01:58.000Z,69.30
2018-10-06T04:04:26.956Z,69.70
2018-10-06T04:06:56.720Z,69.80
2018-10-06T04:09:25.883Z,69.60
2018-10-06T04:11:55.405Z,69.50
2018-10-06T04:14:24.744Z,69.30
2018-10-06T04:16:56.809Z,69.60
2018-10-06T04:19:25.834Z,69.90
2018-10-06T04:21:54.943Z,69.70
2018-10-06T04:24:24.112Z,69.40
2018-10-06T04:26:54.824Z,69.30
2018-10-06T04:29:23.829Z,69.60
2018-10-06T04:31:52.962Z,69.50
2018-10-06T04:34:22.004Z,69.50
2018-10-06T04:36:51.002Z,69.50
2018-10-06T04:39:20.274Z,69.40
2018-10-06T04:41:49.392Z,69.40
2018-10-06T04:44:18.395Z,69.50
2018-10-06T04:46:47.577Z,69.70
2018-10-06T04:49:17.935Z,69.80
2018-10-06T04:51:47.670Z,69.80
2018-10-06T04:54:16.757Z,70.40
2018-10-06T04:56:45.816Z,70.40
2018-10-06T04:59:14.752Z,70.60
2018-10-06T05:01:44.004Z,70.40
2018-10-06T05:04:13.251Z,70.70
2018-10-06T05:06:42.469Z,70.40
2018-10-06T05:09:11.590Z,70.10
2018-10-06T05:11:40.689Z,70.20
2018-10-06T05:14:09.674Z,70.60
2018-10-06T05:16:39.675Z,70.20
2018-10-06T05:19:08.673Z,70.30
2018-10-06T05:21:37.656Z,70.40
2018-10-06T05:24:06.748Z,70.60
2018-10-06T05:26:35.748Z,70.90
2018-10-06T05:29:04.805Z,71.00
2018-10-06T05:31:34.702Z,70.80
2018-10-06T05:34:03.962Z,70.70
2018-10-06T05:36:32.856Z,71.20
2018-10-06T05:39:03.008Z,70.90
2018-10-06T05:41:31.851Z,71.00
2018-10-06T05:44:00.817Z,71.20
2018-10-06T05:46:30.490Z,71.10
2018-10-06T05:48:59.649Z,71.30
2018-10-06T05:51:30.849Z,71.50
2018-10-06T05:54:01.156Z,71.60
2018-10-06T05:56:31.309Z,71.60
2018-10-06T05:59:01.153Z,71.80
2018-10-06T06:01:30.498Z,71.60
2018-10-06T06:04:00.536Z,71.10
2018-10-06T06:06:30.245Z,71.20
2018-10-06T06:08:59.814Z,71.30
2018-10-06T06:11:29.648Z,71.40
2018-10-06T06:13:59.652Z,71.50
2018-10-06T06:16:29.890Z,72.50
2018-10-06T06:18:58.894Z,71.60
2018-10-06T06:21:28.713Z,71.20
2018-10-06T06:23:58.546Z,71.30
2018-10-06T06:26:28.118Z,71.30
2018-10-06T06:28:57.458Z,71.50
2018-10-06T06:31:26.707Z,71.20
2018-10-06T06:33:56.079Z,71.20
2018-10-06T06:36:25.096Z,71.30
2018-10-06T06:38:54.755Z,71.30
2018-10-06T06:41:23.836Z,71.10
2018-10-06T06:43:52.964Z,71.10
2018-10-06T06:46:22.094Z,71.20
2018-10-06T06:48:51.093Z,71.10
2018-10-06T06:51:20.169Z,71.10
2018-10-06T06:53:49.504Z,71.10
2018-10-06T06:56:19.531Z,71.00
2018-10-06T06:58:48.709Z,71.00
2018-10-06T07:01:17.950Z,71.20
2018-10-06T07:03:46.887Z,71.50
2018-10-06T07:06:15.841Z,71.70
2018-10-06T07:08:45.036Z,71.80
2018-10-06T07:11:14.075Z,71.70
2018-10-06T07:13:43.033Z,71.80
2018-10-06T07:16:12.060Z,71.90
2018-10-06T07:18:41.462Z,72.40
2018-10-06T07:21:10.411Z,72.50
2018-10-06T07:23:39.828Z,72.30
2018-10-06T07:26:08.742Z,72.40
2018-10-06T07:28:37.720Z,72.60
2018-10-06T07:31:07.023Z,72.40
2018-10-06T07:33:35.985Z,72.00
2018-10-06T07:36:04.998Z,72.20
2018-10-06T07:38:34.095Z,72.00
2018-10-06T07:41:03.401Z,71.50
2018-10-06T07:43:32.490Z,71.10
2018-10-06T07:46:01.596Z,71.20
2018-10-06T07:48:30.838Z,70.90
2018-10-06T07:51:00.087Z,70.90
2018-10-06T07:53:29.564Z,71.10
2018-10-06T07:55:58.603Z,70.90
2018-10-06T07:58:28.627Z,70.60
2018-10-06T08:00:59.612Z,70.30
2018-10-06T08:03:28.795Z,70.10
2018-10-06T08:05:58.395Z,69.70
2018-10-06T08:08:27.624Z,69.30
2018-10-06T08:10:57.022Z,68.20
2018-10-06T08:13:26.268Z,67.90
2018-10-06T08:15:55.781Z,67.90
2018-10-06T08:18:24.916Z,67.30
2018-10-06T08:20:54.109Z,66.20
2018-10-06T08:23:23.163Z,65.60
2018-10-06T08:25:52.276Z,64.10
2018-10-06T08:28:21.382Z,64.00
2018-10-06T08:30:50.392Z,62.40
2018-10-06T08:33:19.407Z,62.60
2018-10-06T08:35:48.283Z,63.10
2018-10-06T08:38:17.503Z,62.10
2018-10-06T08:40:46.735Z,62.10
2018-10-06T08:43:15.886Z,62.10
2018-10-06T08:45:45.029Z,62.40
2018-10-06T08:48:13.991Z,62.90
2018-10-06T08:50:43.172Z,62.70
2018-10-06T08:53:12.276Z,63.40
2018-10-06T08:55:41.330Z,62.50
2018-10-06T08:58:10.271Z,63.00
2018-10-06T09:00:39.577Z,62.90
2018-10-06T09:03:08.898Z,63.90
2018-10-06T09:05:37.962Z,63.60
2018-10-06T09:08:07.031Z,63.90
2018-10-06T09:10:35.951Z,63.00
2018-10-06T09:13:04.918Z,62.80
2018-10-06T09:15:34.300Z,64.80
2018-10-06T09:18:03.268Z,63.40
2018-10-06T09:23:01.628Z,63.50
2018-10-06T09:25:31.065Z,64.40
2018-10-06T09:28:00.720Z,63.80
2018-10-06T09:30:30.547Z,63.60
2018-10-06T09:32:59.684Z,64.40
2018-10-06T09:35:28.907Z,64.40
2018-10-06T09:37:59.040Z,64.70
2018-10-06T09:40:28.320Z,63.60
2018-10-06T09:42:58.427Z,63.30
2018-10-06T09:45:27.509Z,62.90
2018-10-06T09:47:56.685Z,63.40
2018-10-06T09:50:25.901Z,63.90
2018-10-06T09:52:55.524Z,64.00
2018-10-06T09:55:24.637Z,64.00
2018-10-06T09:57:53.896Z,64.40
2018-10-06T10:00:28.784Z,64.70
2018-10-06T10:03:03.169Z,64.90
2018-10-06T10:05:37.484Z,64.50
2018-10-06T10:08:06.542Z,63.90
2018-10-06T10:10:35.575Z,64.50
2018-10-06T10:13:04.558Z,63.20
2018-10-06T10:15:33.592Z,62.90
2018-10-06T10:18:02.626Z,60.50
2018-10-06T10:20:31.998Z,61.30
2018-10-06T10:23:01.171Z,60.40
2018-10-06T10:25:30.560Z,60.60
2018-10-06T10:27:59.741Z,60.80
2018-10-06T10:30:29.380Z,59.00
2018-10-06T10:32:59.441Z,59.10
2018-10-06T10:35:28.916Z,60.00
2018-10-06T10:37:58.532Z,61.50
2018-10-06T10:40:29.742Z,60.90
2018-10-06T10:43:00.143Z,62.20
2018-10-06T10:45:29.477Z,62.20
2018-10-06T10:47:59.405Z,60.10
2018-10-06T10:50:28.462Z,60.10
2018-10-06T10:52:57.901Z,59.40
2018-10-06T10:55:26.878Z,57.60
2018-10-06T10:57:56.121Z,57.70
2018-10-06T11:00:25.188Z,57.40
2018-10-06T11:02:54.225Z,57.80
2018-10-06T11:05:23.455Z,58.90
2018-10-06T11:07:52.379Z,59.20
2018-10-06T11:10:21.366Z,58.80
2018-10-06T11:12:50.461Z,58.20
2018-10-06T11:15:19.322Z,57.60
2018-10-06T11:17:48.273Z,58.60
2018-10-06T11:20:17.397Z,57.80
2018-10-06T11:22:46.441Z,57.70
2018-10-06T11:25:15.402Z,57.50
2018-10-06T11:27:44.379Z,57.40
2018-10-06T11:30:13.312Z,58.40
2018-10-06T11:32:42.513Z,59.20
2018-10-06T11:35:11.623Z,59.20
2018-10-06T11:37:40.817Z,58.60
2018-10-06T11:40:10.122Z,59.60
2018-10-06T11:42:39.081Z,59.50
2018-10-06T11:45:08.130Z,59.50
2018-10-06T11:47:37.625Z,58.20
2018-10-06T11:50:06.983Z,57.90
2018-10-06T11:52:35.878Z,57.60
2018-10-06T11:55:05.205Z,57.20
2018-10-06T11:57:34.393Z,56.60
2018-10-06T12:00:03.486Z,57.50
2018-10-06T12:02:32.394Z,57.50
2018-10-06T12:05:01.671Z,57.20
2018-10-06T12:07:31.407Z,57.70
2018-10-06T12:10:00.650Z,57.40
2018-10-06T12:12:29.807Z,55.70
2018-10-06T12:15:00.098Z,55.60
2018-10-06T12:17:29.735Z,56.70
2018-10-06T12:20:00.904Z,57.80
2018-10-06T12:22:30.156Z,56.50
2018-10-06T12:24:59.483Z,57.10
2018-10-06T12:27:29.877Z,57.50
2018-10-06T12:30:00.159Z,57.00
2018-10-06T12:32:29.758Z,55.90
2018-10-06T12:34:59.557Z,57.20
2018-10-06T12:37:28.922Z,56.90
2018-10-06T12:39:58.587Z,58.20
2018-10-06T12:42:28.199Z,57.50
2018-10-06T12:44:58.373Z,57.30
2018-10-06T12:47:27.410Z,57.00
2018-10-06T12:49:56.555Z,54.90
2018-10-06T12:52:26.549Z,55.40
2018-10-06T12:54:55.712Z,56.40
2018-10-06T12:57:24.787Z,56.20
2018-10-06T12:59:53.740Z,56.10
2018-10-06T13:02:22.663Z,57.20
2018-10-06T13:04:51.933Z,57.20
2018-10-06T13:07:20.912Z,56.00
2018-10-06T13:09:50.083Z,55.30
2018-10-06T13:12:19.093Z,56.80
2018-10-06T13:14:48.196Z,57.90
2018-10-06T13:17:17.465Z,59.00
2018-10-06T13:19:47.028Z,58.10
2018-10-06T13:22:16.019Z,58.30
2018-10-06T13:24:45.111Z,57.20
2018-10-06T13:27:14.156Z,57.80
2018-10-06T13:29:43.278Z,58.20
2018-10-06T13:32:12.454Z,58.60
2018-10-06T13:34:41.477Z,58.70
2018-10-06T13:37:10.617Z,58.10
2018-10-06T13:39:39.698Z,57.90
2018-10-06T13:42:08.647Z,57.20
2018-10-06T13:44:37.672Z,58.30
2018-10-06T13:47:06.664Z,57.20
2018-10-06T13:49:36.274Z,57.20
2018-10-06T13:52:05.274Z,58.90
2018-10-06T13:54:34.143Z,58.80
2018-10-06T13:57:03.300Z,60.10
2018-10-06T13:59:32.289Z,59.60
2018-10-06T14:02:01.442Z,59.80
2018-10-06T14:04:30.893Z,58.90
2018-10-06T14:07:00.283Z,59.60
2018-10-06T14:09:29.391Z,59.40
2018-10-06T14:11:59.444Z,60.00
2018-10-06T14:14:28.620Z,58.40
2018-10-06T14:16:58.175Z,59.00
2018-10-06T14:19:27.360Z,59.20
2018-10-06T14:21:56.425Z,59.30
2018-10-06T14:24:25.510Z,59.10
2018-10-06T14:26:54.461Z,59.00
2018-10-06T14:29:23.459Z,59.20
2018-10-06T14:31:52.626Z,58.90
2018-10-06T14:34:21.596Z,58.40
2018-10-06T14:36:51.607Z,59.10
2018-10-06T14:39:20.855Z,58.80
2018-10-06T14:41:51.832Z,59.20
2018-10-06T14:44:20.966Z,59.20
2018-10-06T14:46:50.293Z,58.90
2018-10-06T14:49:19.473Z,59.20
2018-10-06T14:51:48.485Z,59.40
2018-10-06T14:54:17.985Z,59.20
2018-10-06T14:56:47.080Z,59.20
2018-10-06T14:59:16.535Z,59.40
2018-10-06T15:01:45.776Z,59.80
2018-10-06T15:04:14.847Z,59.70
2018-10-06T15:06:43.756Z,59.80
2018-10-06T15:09:12.878Z,60.10
2018-10-06T15:11:41.896Z,60.10
2018-10-06T15:14:11.046Z,59.80
2018-10-06T15:16:40.164Z,59.90
2018-10-06T15:19:09.298Z,60.10
2018-10-06T15:21:38.416Z,59.90
2018-10-06T15:24:07.557Z,59.80
2018-10-06T15:26:36.542Z,59.60
2018-10-06T15:29:05.773Z,59.70
2018-10-06T15:31:35.351Z,60.40
2018-10-06T15:34:04.439Z,60.10
2018-10-06T15:36:33.744Z,59.90
2018-10-06T15:39:02.791Z,59.50
2018-10-06T15:41:31.820Z,59.20
2018-10-06T15:44:01.508Z,59.40
2018-10-06T15:46:30.831Z,59.70
2018-10-06T15:49:00.557Z,60.00
2018-10-06T15:51:30.693Z,60.00
2018-10-06T15:54:00.982Z,60.30
2018-10-06T15:56:30.526Z,60.40
2018-10-06T15:59:00.251Z,60.80
2018-10-06T16:01:29.678Z,60.60
2018-10-06T16:03:59.577Z,60.50
2018-10-06T16:06:28.863Z,61.00
2018-10-06T16:08:59.696Z,61.10
2018-10-06T16:11:29.642Z,61.30
2018-10-06T16:14:02.220Z,61.40
2018-10-06T16:16:31.502Z,61.80
2018-10-06T16:19:00.982Z,62.40
2018-10-06T16:21:30.083Z,62.30
2018-10-06T16:23:59.861Z,62.00
2018-10-06T16:26:29.158Z,62.00
2018-10-06T16:28:58.711Z,61.60
2018-10-06T16:31:27.886Z,61.20
2018-10-06T16:33:56.813Z,61.20
2018-10-06T16:36:25.846Z,61.70
2018-10-06T16:38:55.025Z,61.90
2018-10-06T16:41:24.054Z,61.70
2018-10-06T16:43:52.933Z,61.80
2018-10-06T16:46:23.103Z,61.60
2018-10-06T16:48:52.143Z,61.80
2018-10-06T16:51:21.095Z,62.30
2018-10-06T16:53:49.951Z,62.00
2018-10-06T16:56:19.245Z,61.80
2018-10-06T16:58:48.298Z,62.10
2018-10-06T17:01:17.295Z,62.10
2018-10-06T17:03:46.329Z,62.00
2018-10-06T17:06:15.322Z,61.90
2018-10-06T17:08:44.457Z,61.90
2018-10-06T17:11:13.389Z,62.00
2018-10-06T17:13:42.447Z,62.40
2018-10-06T17:16:11.563Z,62.50
2018-10-06T17:18:41.009Z,62.70
2018-10-06T17:21:09.953Z,62.60
2018-10-06T17:23:38.985Z,62.40
2018-10-06T17:26:07.997Z,62.30
2018-10-06T17:28:37.095Z,62.50
2018-10-06T17:31:06.808Z,62.60
2018-10-06T17:33:35.988Z,62.50
2018-10-06T17:36:04.984Z,62.60
2018-10-06T17:38:34.342Z,62.50
2018-10-06T17:41:03.613Z,63.30
2018-10-06T17:43:33.323Z,62.60
2018-10-06T17:46:04.590Z,62.50
2018-10-06T17:48:34.543Z,62.50
2018-10-06T17:51:03.584Z,62.60
2018-10-06T17:53:32.958Z,62.80
2018-10-06T17:56:02.103Z,62.70
2018-10-06T17:58:31.145Z,62.70
2018-10-06T18:01:00.881Z,62.90
2018-10-06T18:03:30.231Z,63.40
2018-10-06T18:06:00.336Z,63.10
2018-10-06T18:08:30.350Z,63.60
2018-10-06T18:11:01.273Z,63.60
2018-10-06T18:13:30.586Z,63.40
2018-10-06T18:16:00.756Z,63.20
2018-10-06T18:18:30.585Z,63.30
2018-10-06T18:21:00.046Z,62.90
2018-10-06T18:23:29.189Z,62.60
2018-10-06T18:25:59.009Z,62.70
2018-10-06T18:28:28.941Z,62.40
2018-10-06T18:30:58.475Z,63.10
2018-10-06T18:33:27.456Z,63.40
2018-10-06T18:35:56.459Z,63.40
2018-10-06T18:38:25.965Z,63.40
2018-10-06T18:40:54.920Z,63.40
2018-10-06T18:43:23.881Z,63.50
2018-10-06T18:45:53.098Z,63.60
2018-10-06T18:48:22.037Z,63.80
2018-10-06T18:50:51.283Z,64.00
2018-10-06T18:53:20.564Z,64.30
2018-10-06T18:55:49.564Z,64.10
2018-10-06T18:58:18.596Z,64.20
2018-10-06T19:00:47.842Z,63.60
2018-10-06T19:03:17.650Z,63.70
2018-10-06T19:05:46.547Z,63.90
2018-10-06T19:08:15.697Z,64.10
2018-10-06T19:10:44.686Z,64.20
2018-10-06T19:13:13.621Z,64.10
2018-10-06T19:15:42.763Z,64.00
2018-10-06T19:18:11.809Z,64.00
2018-10-06T19:20:40.888Z,64.20
2018-10-06T19:23:10.021Z,63.80
2018-10-06T19:25:38.960Z,63.40
2018-10-06T19:28:08.032Z,63.50
2018-10-06T19:30:37.370Z,63.80
2018-10-06T19:33:06.447Z,63.90
2018-10-06T19:35:35.433Z,64.10
2018-10-06T19:38:04.770Z,64.10
2018-10-06T19:40:34.379Z,64.10
2018-10-06T19:43:03.253Z,64.10
2018-10-06T19:45:32.729Z,64.20
2018-10-06T19:48:01.789Z,64.50
2018-10-06T19:50:30.838Z,63.80
2018-10-06T19:53:00.382Z,63.80
2018-10-06T19:55:29.535Z,64.20
2018-10-06T19:57:58.788Z,64.30
2018-10-06T20:00:27.959Z,64.30
2018-10-06T20:02:57.012Z,64.50
2018-10-06T20:05:26.152Z,64.30
2018-10-06T20:07:55.194Z,64.20
2018-10-06T20:10:24.342Z,64.30
2018-10-06T20:12:53.265Z,64.50
2018-10-06T20:15:22.222Z,65.50
2018-10-06T20:17:51.130Z,65.80
2018-10-06T20:20:20.097Z,65.60
2018-10-06T20:22:48.957Z,65.80
2018-10-06T20:25:18.133Z,66.00
2018-10-06T20:27:47.156Z,65.80
2018-10-06T20:30:16.308Z,65.00
2018-10-06T20:32:45.304Z,64.90
2018-10-06T20:35:14.301Z,64.50
2018-10-06T20:37:43.327Z,64.10
2018-10-06T20:40:12.567Z,65.50
2018-10-06T20:42:41.458Z,65.80
2018-10-06T20:45:10.464Z,66.00
2018-10-06T20:47:39.583Z,65.80
2018-10-06T20:50:08.734Z,65.90
2018-10-06T20:52:37.808Z,65.80
2018-10-06T20:55:06.754Z,65.80
2018-10-06T20:57:35.758Z,65.60
2018-10-06T21:00:05.014Z,65.30
2018-10-06T21:02:33.939Z,65.50
2018-10-06T21:05:02.930Z,66.00
2018-10-06T21:07:31.996Z,65.60
2018-10-06T21:10:01.155Z,65.70
2018-10-06T21:12:30.254Z,66.20
2018-10-06T21:14:59.664Z,66.00
2018-10-06T21:17:28.911Z,66.30
2018-10-06T21:19:57.915Z,66.30
2018-10-06T21:22:27.025Z,66.30
2018-10-06T21:24:56.309Z,66.50
2018-10-06T21:27:25.327Z,66.80
2018-10-06T21:29:54.251Z,66.80
2018-10-06T21:32:23.351Z,66.90
2018-10-06T21:34:52.285Z,67.00
2018-10-06T21:37:21.453Z,67.10
2018-10-06T21:39:50.376Z,67.20
2018-10-06T21:42:19.352Z,67.10
2018-10-06T21:44:48.408Z,67.10
2018-10-06T21:47:17.608Z,67.10
2018-10-06T21:49:47.124Z,67.20
2018-10-06T21:52:16.197Z,67.40
2018-10-06T21:54:45.164Z,67.50
2018-10-06T21:57:14.064Z,67.20
2018-10-06T21:59:43.446Z,67.20
2018-10-06T22:02:12.399Z,67.10
2018-10-06T22:04:41.377Z,67.40
2018-10-06T22:07:10.431Z,67.50
2018-10-06T22:09:39.399Z,67.50
2018-10-06T22:12:08.429Z,67.70
2018-10-06T22:14:37.360Z,67.80
2018-10-06T22:17:06.349Z,67.80
2018-10-06T22:19:35.317Z,67.90
2018-10-06T22:22:04.401Z,67.80
2018-10-06T22:24:33.410Z,67.80
2018-10-06T22:27:02.671Z,68.00
2018-10-06T22:29:31.907Z,68.10
2018-10-06T22:32:01.118Z,68.10
2018-10-06T22:34:30.372Z,68.30
2018-10-06T22:37:00.032Z,68.20
2018-10-06T22:39:29.435Z,68.30
2018-10-06T22:41:58.393Z,68.50
2018-10-06T22:44:27.437Z,68.70
2018-10-06T22:46:57.869Z,68.70
2018-10-06T22:49:26.894Z,68.00
2018-10-06T22:51:55.938Z,69.20
2018-10-06T22:54:24.900Z,68.70
2018-10-06T22:56:53.908Z,68.60
2018-10-06T22:59:22.887Z,68.80
2018-10-06T23:01:51.885Z,68.80
2018-10-06T23:04:20.920Z,68.80
2018-10-06T23:06:50.040Z,68.80
2018-10-06T23:09:19.276Z,69.00
2018-10-06T23:11:48.511Z,69.00
2018-10-06T23:14:18.459Z,68.50
2018-10-06T23:16:47.504Z,68.80
2018-10-06T23:19:16.419Z,68.00
2018-10-06T23:21:45.457Z,68.20
2018-10-06T23:24:14.378Z,69.00
2018-10-06T23:26:43.371Z,68.50
2018-10-06T23:29:12.311Z,68.70
2018-10-06T23:31:41.451Z,68.60
2018-10-06T23:34:10.354Z,69.10
2018-10-06T23:36:39.469Z,68.70
2018-10-06T23:39:08.596Z,68.70
2018-10-06T23:41:37.538Z,68.80
2018-10-06T23:44:06.699Z,68.50
2018-10-06T23:46:35.649Z,69.00
2018-10-06T23:49:04.643Z,68.90
2018-10-06T23:51:33.840Z,68.50
2018-10-06T23:54:03.226Z,68.90
2018-10-06T23:56:32.251Z,68.60
2018-10-06T23:59:01.666Z,68.20
